Mangum, Oklahoma
Current Conditions -  °F | °C
As of 10:15 PM on Friday 19 Dec 2014 (Local Time) from KAXS Reporting Station
Overcast Overcast  
Wind Chill: 42°   Ceiling: 2300
Heat Index: 44°   Visibility: 10mi
Dew Point: 38°   Wind: 5mph
Humidity: 80%   Direction: 160°SSE
Pressure: 30.22"   Gusts: NA
Location:  34.87°N, 99.5°W
Report Text: KAXS 200415Z AUTO 16004KT 10SM OVC023 07/04 A3022 RMK AO2 T00690036
Loading
Personal Weather Stations






























Interactive Weather Map New forecast layout! Learn more

10-Day Weather Forecast

Advertisements
Track Severe Weather on mobile